createdAt,value
2023-01-13T00:00:18.124Z,90.62
2023-01-13T00:01:23.028Z,90.65
2023-01-13T00:02:26.837Z,90.47
2023-01-13T00:04:03.050Z,90.58
2023-01-13T00:05:07.006Z,90.66
2023-01-13T00:06:10.494Z,90.62
2023-01-13T00:07:46.406Z,90.72
2023-01-13T00:08:50.128Z,90.51
2023-01-13T00:09:53.758Z,90.36
2023-01-13T00:11:29.718Z,90.52
2023-01-13T00:12:33.485Z,90.46
2023-01-13T00:13:37.123Z,89.49
2023-01-13T00:15:12.991Z,89.74
2023-01-13T00:16:16.847Z,89.46
2023-01-13T00:17:20.572Z,89.48
2023-01-13T00:18:56.293Z,89.13
2023-01-13T00:19:59.964Z,89.07
2023-01-13T00:21:03.378Z,89.09
2023-01-13T00:22:39.315Z,88.86
2023-01-13T00:23:43.035Z,88.62
2023-01-13T00:24:46.436Z,88.67
2023-01-13T00:26:22.298Z,88.46
2023-01-13T00:27:25.899Z,88.07
2023-01-13T00:28:29.730Z,87.99
2023-01-13T00:30:05.468Z,88.33
2023-01-13T00:31:09.288Z,87.90
2023-01-13T00:32:13.289Z,88.33
2023-01-13T00:33:49.057Z,88.08
2023-01-13T00:34:52.676Z,87.29
2023-01-13T00:35:56.049Z,86.76
2023-01-13T00:37:31.839Z,86.85
2023-01-13T00:38:35.461Z,87.57
2023-01-13T00:39:39.087Z,87.18
2023-01-13T00:41:14.730Z,86.07
2023-01-13T00:42:18.417Z,86.21
2023-01-13T00:43:22.077Z,86.83
2023-01-13T00:44:57.947Z,86.76
2023-01-13T00:46:01.597Z,86.51
2023-01-13T00:47:05.468Z,86.61
2023-01-13T00:48:40.961Z,86.27
2023-01-13T00:49:44.654Z,85.94
2023-01-13T00:50:48.310Z,85.49
2023-01-13T00:52:23.911Z,85.91
2023-01-13T00:53:28.888Z,85.92
2023-01-13T00:54:32.669Z,85.84
2023-01-13T00:56:08.309Z,85.61
2023-01-13T00:57:27.876Z,85.32
2023-01-13T00:58:31.591Z,85.71
2023-01-13T01:00:17.907Z,85.16
2023-01-13T01:01:21.963Z,84.97
2023-01-13T01:02:26.892Z,85.44
2023-01-13T01:04:02.810Z,85.60
2023-01-13T01:05:06.229Z,85.26
2023-01-13T01:06:09.819Z,85.00
2023-01-13T01:07:45.865Z,85.11
2023-01-13T01:08:49.471Z,85.33
2023-01-13T01:09:53.081Z,85.55
2023-01-13T01:11:28.990Z,85.46
2023-01-13T01:12:32.714Z,85.68
2023-01-13T01:13:36.329Z,86.09
2023-01-13T01:15:12.110Z,86.00
2023-01-13T01:16:15.958Z,86.02
2023-01-13T01:17:20.159Z,86.71
2023-01-13T01:18:56.010Z,86.63
2023-01-13T01:19:59.720Z,86.51
2023-01-13T01:21:03.428Z,86.36
2023-01-13T01:22:39.093Z,86.48
2023-01-13T01:23:42.841Z,86.89
2023-01-13T01:24:46.490Z,86.74
2023-01-13T01:26:22.904Z,87.22
2023-01-13T01:27:26.232Z,87.58
2023-01-13T01:28:29.727Z,87.72
2023-01-13T01:30:05.597Z,87.75
2023-01-13T01:31:09.413Z,88.00
2023-01-13T01:32:13.323Z,88.10
2023-01-13T01:33:49.079Z,88.25
2023-01-13T01:34:52.520Z,88.49
2023-01-13T01:35:56.191Z,88.50
2023-01-13T01:37:32.018Z,88.70
2023-01-13T01:38:35.616Z,88.68
2023-01-13T01:39:39.241Z,88.58
2023-01-13T01:41:14.757Z,88.83
2023-01-13T01:42:18.335Z,88.43
2023-01-13T01:43:22.038Z,88.65
2023-01-13T01:44:57.811Z,88.67
2023-01-13T01:46:01.338Z,88.72
2023-01-13T01:47:05.363Z,88.63
2023-01-13T01:48:41.112Z,88.59
2023-01-13T01:49:44.758Z,88.75
2023-01-13T01:50:48.120Z,88.62
2023-01-13T01:52:23.732Z,88.60
2023-01-13T01:53:27.602Z,88.52
2023-01-13T01:54:31.173Z,88.48
2023-01-13T01:56:06.709Z,88.53
2023-01-13T01:57:10.375Z,88.49
2023-01-13T01:58:14.035Z,88.39
2023-01-13T01:59:49.774Z,88.60
2023-01-13T02:00:18.594Z,88.54
2023-01-13T02:01:22.920Z,88.29
2023-01-13T02:02:27.168Z,88.15
2023-01-13T02:04:03.177Z,87.96
2023-01-13T02:05:06.638Z,87.95
2023-01-13T02:06:10.082Z,87.89
2023-01-13T02:07:45.903Z,87.89
2023-01-13T02:08:49.434Z,87.86
2023-01-13T02:09:53.111Z,87.63
2023-01-13T02:11:28.958Z,87.59
2023-01-13T02:12:32.415Z,87.73
2023-01-13T02:13:36.104Z,87.73
2023-01-13T02:15:11.895Z,87.71
2023-01-13T02:16:15.636Z,87.66
2023-01-13T02:17:19.385Z,87.51
2023-01-13T02:18:55.107Z,87.65
2023-01-13T02:19:58.702Z,87.93
2023-01-13T02:21:02.044Z,87.98
2023-01-13T02:22:38.012Z,88.21
2023-01-13T02:23:41.444Z,88.13
2023-01-13T02:24:45.363Z,88.19
2023-01-13T02:26:22.216Z,87.98
2023-01-13T02:27:26.514Z,87.80
2023-01-13T02:28:30.600Z,87.85
2023-01-13T02:30:06.407Z,88.04
2023-01-13T02:31:09.838Z,88.09
2023-01-13T02:32:13.677Z,88.11
2023-01-13T02:33:49.181Z,88.43
2023-01-13T02:34:52.557Z,88.42
2023-01-13T02:35:56.076Z,88.41
2023-01-13T02:37:31.850Z,88.34
2023-01-13T02:38:35.310Z,88.41
2023-01-13T02:39:38.852Z,88.63
2023-01-13T02:41:14.764Z,88.61
2023-01-13T02:42:18.322Z,88.32
2023-01-13T02:43:21.954Z,87.89
2023-01-13T02:44:57.818Z,88.06
2023-01-13T02:46:01.393Z,87.78
2023-01-13T02:47:05.119Z,87.21
2023-01-13T02:48:40.908Z,87.59
2023-01-13T02:49:44.403Z,87.42
2023-01-13T02:50:48.047Z,86.73
2023-01-13T02:52:23.923Z,87.58
2023-01-13T02:53:27.468Z,87.66
2023-01-13T02:54:31.003Z,87.38
2023-01-13T02:56:06.812Z,87.48
2023-01-13T02:57:10.410Z,87.28
2023-01-13T02:58:13.903Z,86.81
2023-01-13T02:59:49.621Z,87.40
2023-01-13T03:00:18.263Z,86.87
2023-01-13T03:01:22.418Z,87.18
2023-01-13T03:02:27.274Z,86.90
2023-01-13T03:04:03.494Z,86.90
2023-01-13T03:05:07.186Z,87.33
2023-01-13T03:06:10.849Z,87.03
2023-01-13T03:07:46.557Z,87.42
2023-01-13T03:08:50.335Z,87.19
2023-01-13T03:09:53.823Z,87.27
2023-01-13T03:11:29.815Z,87.31
2023-01-13T03:12:33.400Z,86.54
2023-01-13T03:13:37.109Z,86.90
2023-01-13T03:15:13.248Z,87.06
2023-01-13T03:16:17.004Z,86.65
2023-01-13T03:17:21.110Z,86.62
2023-01-13T03:18:56.773Z,86.33
2023-01-13T03:20:00.386Z,86.49
2023-01-13T03:21:04.006Z,86.05
2023-01-13T03:22:39.850Z,85.68
2023-01-13T03:23:43.611Z,86.05
2023-01-13T03:24:47.287Z,85.95
2023-01-13T03:26:23.056Z,85.87
2023-01-13T03:27:26.626Z,85.85
2023-01-13T03:28:30.200Z,85.52
2023-01-13T03:30:06.489Z,85.80
2023-01-13T03:31:10.615Z,85.54
2023-01-13T03:32:14.469Z,85.49
2023-01-13T03:33:50.534Z,85.48
2023-01-13T03:34:54.189Z,85.72
2023-01-13T03:35:57.840Z,85.56
2023-01-13T03:37:33.781Z,85.31
2023-01-13T03:38:37.527Z,85.24
2023-01-13T03:39:41.289Z,85.27
2023-01-13T03:41:17.625Z,85.10
2023-01-13T03:42:21.256Z,85.50
2023-01-13T03:43:25.041Z,85.02
2023-01-13T03:45:01.072Z,84.93
2023-01-13T03:46:04.772Z,85.40
2023-01-13T03:47:08.882Z,85.41
2023-01-13T03:48:44.708Z,85.22
2023-01-13T03:49:48.270Z,85.29
2023-01-13T03:50:51.924Z,85.00
2023-01-13T03:52:27.895Z,85.02
2023-01-13T03:53:31.540Z,84.37
2023-01-13T03:54:35.187Z,84.72
2023-01-13T03:56:10.985Z,84.97
2023-01-13T03:57:14.814Z,84.39
2023-01-13T03:58:18.532Z,84.16
2023-01-13T03:59:54.428Z,84.75
2023-01-13T04:00:18.000Z,84.75
2023-01-13T04:01:22.178Z,85.07
2023-01-13T04:02:26.858Z,85.00
2023-01-13T04:04:03.020Z,84.44
2023-01-13T04:05:06.714Z,84.78
2023-01-13T04:06:10.424Z,84.64
2023-01-13T04:07:46.509Z,84.80
2023-01-13T04:08:50.100Z,85.09
2023-01-13T04:09:53.709Z,84.67
2023-01-13T04:11:31.874Z,84.74
2023-01-13T04:12:35.379Z,84.46
2023-01-13T04:13:38.912Z,84.46
2023-01-13T04:15:14.563Z,84.75
2023-01-13T04:16:18.516Z,84.80
2023-01-13T04:17:24.197Z,84.73
2023-01-13T04:18:59.901Z,84.72
2023-01-13T04:20:03.432Z,84.94
2023-01-13T04:21:07.115Z,84.73
2023-01-13T04:22:42.860Z,84.75
2023-01-13T04:23:46.652Z,84.51
2023-01-13T04:24:50.265Z,84.91
2023-01-13T04:26:26.204Z,85.05
2023-01-13T04:27:29.810Z,85.42
2023-01-13T04:28:33.531Z,85.49
2023-01-13T04:30:09.118Z,85.32
2023-01-13T04:31:13.012Z,85.51
2023-01-13T04:32:16.966Z,85.55
2023-01-13T04:33:52.871Z,85.35
2023-01-13T04:34:56.515Z,85.40
2023-01-13T04:35:59.995Z,85.90
2023-01-13T04:37:35.854Z,85.25
2023-01-13T04:38:39.554Z,85.08
2023-01-13T04:39:43.175Z,85.13
2023-01-13T04:41:18.753Z,84.76
2023-01-13T04:42:22.283Z,84.70
2023-01-13T04:43:25.807Z,84.30
2023-01-13T04:45:01.620Z,84.61
2023-01-13T04:46:05.150Z,84.76
2023-01-13T04:47:09.103Z,84.50
2023-01-13T04:48:44.666Z,84.75
2023-01-13T04:49:48.223Z,85.01
2023-01-13T04:50:51.843Z,85.05
2023-01-13T04:52:27.468Z,85.04
2023-01-13T04:53:31.043Z,85.05
2023-01-13T04:54:34.516Z,84.63
2023-01-13T04:56:10.584Z,84.99
2023-01-13T04:57:14.161Z,84.63
2023-01-13T04:58:17.738Z,84.62
2023-01-13T04:59:53.745Z,84.44
2023-01-13T05:00:17.943Z,84.44
2023-01-13T05:01:21.782Z,84.96
2023-01-13T05:02:26.364Z,84.93
2023-01-13T05:04:01.975Z,84.91
2023-01-13T05:05:49.306Z,84.86
2023-01-13T05:06:53.152Z,84.91
2023-01-13T05:07:56.917Z,84.48
2023-01-13T05:09:32.851Z,85.08
2023-01-13T05:10:36.694Z,84.90
2023-01-13T05:11:40.405Z,85.04
2023-01-13T05:13:16.471Z,84.54
2023-01-13T05:14:20.233Z,84.38
2023-01-13T05:15:23.880Z,84.32
2023-01-13T05:17:03.574Z,84.84
2023-01-13T05:18:07.290Z,84.79
2023-01-13T05:19:10.966Z,84.35
2023-01-13T05:20:46.938Z,83.99
2023-01-13T05:21:50.519Z,83.81
2023-01-13T05:22:54.397Z,83.68
2023-01-13T05:24:30.144Z,82.85
2023-01-13T05:25:33.921Z,83.55
2023-01-13T05:26:37.735Z,82.93
2023-01-13T05:28:13.636Z,83.01
2023-01-13T05:29:17.356Z,82.98
2023-01-13T05:30:21.007Z,83.09
2023-01-13T05:31:57.362Z,82.70
2023-01-13T05:33:01.027Z,83.13
2023-01-13T05:34:04.761Z,82.91
2023-01-13T05:35:40.793Z,82.77
2023-01-13T05:36:44.504Z,82.18
2023-01-13T05:37:48.292Z,81.78
2023-01-13T05:39:24.317Z,82.16
2023-01-13T05:40:28.096Z,82.21
2023-01-13T05:41:31.632Z,82.42
2023-01-13T05:43:07.574Z,81.96
2023-01-13T05:44:11.436Z,82.08
2023-01-13T05:45:15.161Z,81.56
2023-01-13T05:46:51.701Z,82.20
2023-01-13T05:47:55.417Z,82.35
2023-01-13T05:48:58.951Z,81.94
2023-01-13T05:50:34.743Z,82.12
2023-01-13T05:51:38.335Z,82.28
2023-01-13T05:52:41.830Z,81.94
2023-01-13T05:54:17.798Z,82.70
2023-01-13T05:55:21.318Z,82.57
2023-01-13T05:56:25.036Z,82.99
2023-01-13T05:58:00.950Z,83.15
2023-01-13T05:59:04.516Z,82.94
2023-01-13T06:00:17.851Z,83.45
2023-01-13T06:01:22.899Z,83.35
2023-01-13T06:02:26.812Z,83.56
2023-01-13T06:04:03.615Z,83.53
2023-01-13T06:05:07.515Z,83.94
2023-01-13T06:06:10.936Z,83.90
2023-01-13T06:07:46.933Z,83.91
2023-01-13T06:08:50.606Z,83.70
2023-01-13T06:09:54.188Z,83.95
2023-01-13T06:11:30.025Z,83.93
2023-01-13T06:12:33.478Z,83.92
2023-01-13T06:13:37.226Z,83.91
2023-01-13T06:15:12.791Z,84.48
2023-01-13T06:16:16.690Z,84.03
2023-01-13T06:17:20.648Z,83.98
2023-01-13T06:18:56.702Z,83.58
2023-01-13T06:20:00.491Z,83.70
2023-01-13T06:21:04.259Z,83.50
2023-01-13T06:22:40.224Z,83.99
2023-01-13T06:23:43.844Z,84.15
2023-01-13T06:24:47.460Z,83.66
2023-01-13T06:26:23.583Z,83.86
2023-01-13T06:27:27.228Z,83.35
2023-01-13T06:28:30.950Z,83.64
2023-01-13T06:30:06.643Z,83.54
2023-01-13T06:31:10.541Z,83.38
2023-01-13T06:32:14.527Z,83.29
2023-01-13T06:33:50.419Z,83.30
2023-01-13T06:34:54.239Z,82.98
2023-01-13T06:35:57.895Z,83.02
2023-01-13T06:37:33.931Z,82.56
2023-01-13T06:38:37.620Z,82.92
2023-01-13T06:39:41.214Z,83.09
2023-01-13T06:41:17.012Z,82.96
2023-01-13T06:42:20.559Z,82.83
2023-01-13T06:43:24.175Z,82.57
2023-01-13T06:45:00.289Z,83.26
2023-01-13T06:46:03.869Z,82.46
2023-01-13T06:47:07.827Z,82.26
2023-01-13T06:48:43.710Z,82.16
2023-01-13T06:49:47.279Z,82.80
2023-01-13T06:50:50.837Z,82.92
2023-01-13T06:52:26.766Z,82.23
2023-01-13T06:53:30.392Z,82.47
2023-01-13T06:54:33.941Z,82.70
2023-01-13T06:56:09.732Z,82.37
2023-01-13T06:57:13.231Z,82.51
2023-01-13T06:58:16.887Z,82.42
2023-01-13T06:59:52.738Z,82.33
2023-01-13T07:00:17.830Z,82.33
2023-01-13T07:01:22.019Z,82.49
2023-01-13T07:02:27.160Z,82.31
2023-01-13T07:04:03.270Z,82.09
2023-01-13T07:05:07.016Z,82.23
2023-01-13T07:06:10.603Z,82.46
2023-01-13T07:07:46.597Z,82.30
2023-01-13T07:08:50.188Z,81.63
2023-01-13T07:09:53.650Z,82.50
2023-01-13T07:11:29.529Z,81.98
2023-01-13T07:12:32.766Z,82.31
2023-01-13T07:13:36.218Z,82.53
2023-01-13T07:15:12.167Z,81.98
2023-01-13T07:16:16.074Z,82.10
2023-01-13T07:17:20.262Z,82.13
2023-01-13T07:18:56.120Z,82.03
2023-01-13T07:20:02.875Z,82.29
2023-01-13T07:21:06.484Z,82.37
2023-01-13T07:22:42.233Z,82.14
2023-01-13T07:23:45.904Z,82.01
2023-01-13T07:24:49.609Z,81.79
2023-01-13T07:26:25.474Z,82.03
2023-01-13T07:27:29.330Z,81.87
2023-01-13T07:28:32.984Z,81.95
2023-01-13T07:30:08.920Z,81.93
2023-01-13T07:31:12.741Z,82.17
2023-01-13T07:32:16.762Z,82.17
2023-01-13T07:33:52.669Z,82.12
2023-01-13T07:34:56.413Z,82.83
2023-01-13T07:35:59.889Z,82.83
2023-01-13T07:37:35.681Z,82.62
2023-01-13T07:38:39.406Z,83.18
2023-01-13T07:39:46.211Z,83.34
2023-01-13T07:41:21.967Z,82.97
2023-01-13T07:42:25.582Z,82.78
2023-01-13T07:43:29.134Z,83.16
2023-01-13T07:45:05.138Z,83.42
2023-01-13T07:46:10.742Z,82.52
2023-01-13T07:47:14.586Z,82.80
2023-01-13T07:48:50.483Z,83.39
2023-01-13T07:49:54.005Z,83.63
2023-01-13T07:50:57.770Z,83.19
2023-01-13T07:52:33.515Z,83.67
2023-01-13T07:53:37.232Z,82.86
2023-01-13T07:54:46.893Z,82.91
2023-01-13T07:56:22.844Z,82.76
2023-01-13T07:57:26.380Z,82.70
2023-01-13T07:58:29.983Z,82.99
2023-01-13T08:00:18.915Z,82.24
2023-01-13T08:01:23.147Z,82.52
2023-01-13T08:02:28.462Z,82.80
2023-01-13T08:04:04.930Z,82.72
2023-01-13T08:05:08.606Z,82.31
2023-01-13T08:06:12.543Z,81.99
2023-01-13T08:07:48.441Z,82.59
2023-01-13T08:08:52.014Z,82.10
2023-01-13T08:09:55.583Z,82.02
2023-01-13T08:11:31.557Z,82.24
2023-01-13T08:12:35.460Z,82.53
2023-01-13T08:13:51.247Z,82.21
2023-01-13T08:15:27.106Z,82.13
2023-01-13T08:16:31.128Z,81.79
2023-01-13T08:17:34.987Z,82.16
2023-01-13T08:19:10.858Z,82.24
2023-01-13T08:20:14.264Z,82.38
2023-01-13T08:21:18.151Z,82.45
2023-01-13T08:22:54.177Z,82.31
2023-01-13T08:23:59.819Z,82.82
2023-01-13T08:25:03.449Z,82.04
2023-01-13T08:26:39.050Z,82.40
2023-01-13T08:27:42.688Z,81.95
2023-01-13T08:28:46.176Z,82.32
2023-01-13T08:30:21.848Z,82.02
2023-01-13T08:31:26.233Z,81.90
2023-01-13T08:32:29.915Z,82.36
2023-01-13T08:34:05.999Z,82.46
2023-01-13T08:35:09.428Z,82.57
2023-01-13T08:36:13.103Z,81.84
2023-01-13T08:37:48.780Z,82.25
2023-01-13T08:38:52.544Z,82.16
2023-01-13T08:39:56.319Z,82.24
2023-01-13T08:41:32.193Z,81.60
2023-01-13T08:42:35.910Z,81.71
2023-01-13T08:43:41.132Z,81.52
2023-01-13T08:45:16.950Z,81.67
2023-01-13T08:46:20.749Z,82.18
2023-01-13T08:47:24.614Z,81.52
2023-01-13T08:49:00.399Z,81.77
2023-01-13T08:50:04.148Z,81.46
2023-01-13T08:51:07.732Z,81.56
2023-01-13T08:52:43.766Z,81.96
2023-01-13T08:53:47.364Z,82.05
2023-01-13T08:54:50.946Z,81.16
2023-01-13T08:56:27.055Z,82.13
2023-01-13T08:57:33.889Z,83.12
2023-01-13T08:58:55.581Z,82.80
2023-01-13T09:00:18.217Z,84.25
2023-01-13T09:01:22.121Z,84.11
2023-01-13T09:02:27.204Z,84.79
2023-01-13T09:04:03.551Z,84.66
2023-01-13T09:05:07.634Z,85.08
2023-01-13T09:06:11.522Z,85.52
2023-01-13T09:07:47.384Z,85.90
2023-01-13T09:08:50.971Z,86.23
2023-01-13T09:09:54.765Z,86.55
2023-01-13T09:11:30.882Z,86.00
2023-01-13T09:12:34.290Z,86.56
2023-01-13T09:13:38.023Z,86.32
2023-01-13T09:15:16.482Z,86.30
2023-01-13T09:16:20.607Z,86.69
2023-01-13T09:17:24.255Z,86.97
2023-01-13T09:19:00.096Z,87.70
2023-01-13T09:20:03.681Z,87.40
2023-01-13T09:21:07.336Z,86.96
2023-01-13T09:22:43.130Z,87.23
2023-01-13T09:23:50.731Z,88.05
2023-01-13T09:24:54.471Z,88.38
2023-01-13T09:26:30.606Z,88.73
2023-01-13T09:27:34.280Z,89.13
2023-01-13T09:28:37.932Z,89.61
2023-01-13T09:30:14.030Z,89.83
2023-01-13T09:31:18.137Z,90.16
2023-01-13T09:32:24.933Z,90.64
2023-01-13T09:34:00.921Z,91.06
2023-01-13T09:35:04.850Z,91.34
2023-01-13T09:36:08.375Z,91.66
2023-01-13T09:37:44.247Z,91.63
2023-01-13T09:38:47.833Z,91.85
2023-01-13T09:39:51.288Z,92.04
2023-01-13T09:41:27.135Z,92.13
2023-01-13T09:42:30.733Z,92.25
2023-01-13T09:43:34.548Z,92.31
2023-01-13T09:45:10.556Z,92.50
2023-01-13T09:46:14.509Z,92.42
2023-01-13T09:47:19.899Z,92.44
2023-01-13T09:48:56.099Z,92.63
2023-01-13T09:49:59.692Z,92.94
2023-01-13T09:51:03.398Z,92.93
2023-01-13T09:52:40.117Z,92.91
2023-01-13T09:53:43.970Z,93.11
2023-01-13T09:54:47.635Z,92.89
2023-01-13T09:56:23.428Z,92.53
2023-01-13T09:57:27.219Z,92.05
2023-01-13T09:58:31.092Z,92.35
2023-01-13T10:00:17.804Z,92.82
2023-01-13T10:01:21.564Z,91.85
2023-01-13T10:02:25.634Z,91.86
2023-01-13T10:04:01.829Z,91.96
2023-01-13T10:05:08.047Z,91.38
2023-01-13T10:06:11.424Z,91.59
2023-01-13T10:07:48.151Z,91.30
2023-01-13T10:08:52.503Z,91.32
2023-01-13T10:09:56.277Z,91.12
2023-01-13T10:11:33.940Z,91.29
2023-01-13T10:12:37.592Z,91.18
2023-01-13T10:13:41.525Z,90.60
2023-01-13T10:15:17.341Z,91.36
2023-01-13T10:16:21.302Z,91.37
2023-01-13T10:17:25.117Z,91.35
2023-01-13T10:19:01.042Z,91.82
2023-01-13T10:20:04.713Z,91.35
2023-01-13T10:21:08.530Z,91.59
2023-01-13T10:22:44.334Z,91.60
2023-01-13T10:23:48.219Z,91.80
2023-01-13T10:24:51.891Z,92.01
2023-01-13T10:26:28.097Z,91.89
2023-01-13T10:27:31.689Z,91.94
2023-01-13T10:28:35.382Z,91.61
2023-01-13T10:30:11.135Z,91.64
2023-01-13T10:31:14.976Z,92.15
2023-01-13T10:32:18.844Z,91.98
2023-01-13T10:33:54.602Z,91.65
2023-01-13T10:34:58.131Z,92.26
2023-01-13T10:36:01.866Z,91.63
2023-01-13T10:37:37.745Z,91.66
2023-01-13T10:38:41.502Z,91.95
2023-01-13T10:39:45.215Z,91.51
2023-01-13T10:41:20.990Z,91.53
2023-01-13T10:42:24.847Z,91.44
2023-01-13T10:43:28.373Z,91.49
2023-01-13T10:45:04.256Z,91.77
2023-01-13T10:46:08.286Z,92.27
2023-01-13T10:47:12.207Z,92.29
2023-01-13T10:48:48.127Z,92.30
2023-01-13T10:49:51.770Z,92.39
2023-01-13T10:50:56.384Z,92.54
2023-01-13T10:52:32.575Z,92.57
2023-01-13T10:53:36.335Z,92.83
2023-01-13T10:54:39.855Z,92.91
2023-01-13T10:56:15.535Z,92.98
2023-01-13T10:57:19.317Z,93.23
2023-01-13T10:58:23.053Z,93.45
2023-01-13T10:59:58.970Z,93.22
2023-01-13T11:00:18.578Z,93.22
2023-01-13T11:01:22.621Z,92.95
2023-01-13T11:02:32.176Z,93.21
2023-01-13T11:04:08.395Z,92.95
2023-01-13T11:05:12.172Z,93.62
2023-01-13T11:06:15.855Z,93.64
2023-01-13T11:07:51.834Z,94.00
2023-01-13T11:08:55.316Z,93.89
2023-01-13T11:09:59.152Z,93.88
2023-01-13T11:11:34.961Z,94.26
2023-01-13T11:12:38.625Z,94.00
2023-01-13T11:13:43.422Z,94.06
2023-01-13T11:15:22.228Z,93.93
2023-01-13T11:16:26.303Z,94.22
2023-01-13T11:17:40.283Z,94.49
2023-01-13T11:19:15.985Z,94.27
2023-01-13T11:20:19.532Z,94.34
2023-01-13T11:21:23.234Z,94.64
2023-01-13T11:22:59.094Z,94.75
2023-01-13T11:24:02.838Z,94.63
2023-01-13T11:25:06.483Z,94.33
2023-01-13T11:26:42.354Z,94.46
2023-01-13T11:27:46.956Z,94.00
2023-01-13T11:28:50.674Z,94.14
2023-01-13T11:30:26.508Z,94.40
2023-01-13T11:31:31.776Z,94.17
2023-01-13T11:32:35.762Z,94.07
2023-01-13T11:34:11.602Z,94.01
2023-01-13T11:35:15.360Z,93.54
2023-01-13T11:36:20.476Z,93.51
2023-01-13T11:37:56.396Z,93.23
2023-01-13T11:39:00.282Z,93.25
2023-01-13T11:40:03.995Z,93.55
2023-01-13T11:41:40.029Z,92.90
2023-01-13T11:42:43.488Z,92.64
2023-01-13T11:43:47.200Z,92.22
2023-01-13T11:45:23.030Z,92.38
2023-01-13T11:46:26.770Z,92.22
2023-01-13T11:47:30.846Z,92.29
2023-01-13T11:49:06.866Z,92.23
2023-01-13T11:50:10.633Z,92.12
2023-01-13T11:51:14.399Z,91.84
2023-01-13T11:52:50.347Z,91.82
2023-01-13T11:53:54.056Z,91.79
2023-01-13T11:54:57.862Z,91.75
2023-01-13T11:56:35.861Z,91.71
2023-01-13T11:57:39.618Z,91.53
2023-01-13T11:58:55.824Z,91.34
2023-01-13T12:00:18.338Z,90.97
2023-01-13T12:01:23.356Z,90.77
2023-01-13T12:02:27.619Z,90.75
2023-01-13T12:04:04.179Z,90.45
2023-01-13T12:05:07.688Z,90.71
2023-01-13T12:06:11.631Z,90.01
2023-01-13T12:07:47.557Z,90.29
2023-01-13T12:08:51.317Z,90.22
2023-01-13T12:09:55.169Z,89.28
2023-01-13T12:11:37.971Z,89.97
2023-01-13T12:12:41.687Z,89.20
2023-01-13T12:13:46.811Z,89.48
2023-01-13T12:15:22.789Z,88.90
2023-01-13T12:16:26.712Z,89.39
2023-01-13T12:17:30.600Z,89.29
2023-01-13T12:19:06.474Z,88.50
2023-01-13T12:20:10.113Z,88.46
2023-01-13T12:21:13.677Z,88.81
2023-01-13T12:22:49.632Z,88.63
2023-01-13T12:23:53.269Z,88.18
2023-01-13T12:24:56.889Z,87.84
2023-01-13T12:26:32.657Z,87.22
2023-01-13T12:27:36.349Z,87.38
2023-01-13T12:28:40.234Z,87.53
2023-01-13T12:30:16.244Z,87.30
2023-01-13T12:31:20.164Z,87.10
2023-01-13T12:32:24.158Z,87.22
2023-01-13T12:34:00.103Z,87.22
2023-01-13T12:35:03.773Z,87.51
2023-01-13T12:36:07.523Z,87.17
2023-01-13T12:37:43.388Z,87.65
2023-01-13T12:38:46.939Z,87.11
2023-01-13T12:39:50.594Z,86.35
2023-01-13T12:41:26.471Z,86.56
2023-01-13T12:42:30.139Z,86.47
2023-01-13T12:43:33.897Z,86.00
2023-01-13T12:45:09.767Z,86.28
2023-01-13T12:46:16.797Z,86.24
2023-01-13T12:47:20.455Z,86.06
2023-01-13T12:48:56.086Z,85.88
2023-01-13T12:49:59.948Z,85.64
2023-01-13T12:51:03.701Z,85.79
2023-01-13T12:52:42.648Z,86.13
2023-01-13T12:53:46.279Z,85.39
2023-01-13T12:54:49.729Z,84.96
2023-01-13T12:56:25.540Z,84.67
2023-01-13T12:57:29.241Z,84.65
2023-01-13T12:58:32.840Z,84.89
2023-01-13T13:00:17.854Z,85.06
2023-01-13T13:01:21.756Z,85.21
2023-01-13T13:02:26.601Z,85.14
2023-01-13T13:04:05.842Z,85.44
2023-01-13T13:05:09.437Z,84.82
2023-01-13T13:06:13.041Z,84.69
2023-01-13T13:07:48.827Z,84.29
2023-01-13T13:08:52.469Z,83.56
2023-01-13T13:09:56.707Z,83.54
2023-01-13T13:11:32.634Z,83.40
2023-01-13T13:12:36.219Z,83.72
2023-01-13T13:13:39.963Z,83.41
2023-01-13T13:15:16.353Z,83.52
2023-01-13T13:16:20.269Z,82.45
2023-01-13T13:17:24.274Z,82.67
2023-01-13T13:19:00.112Z,82.61
2023-01-13T13:20:03.884Z,81.91
2023-01-13T13:21:10.532Z,81.73
2023-01-13T13:22:46.584Z,82.28
2023-01-13T13:23:50.369Z,81.78
2023-01-13T13:24:54.014Z,81.65
2023-01-13T13:26:30.020Z,82.27
2023-01-13T13:27:33.749Z,82.89
2023-01-13T13:28:37.489Z,82.33
2023-01-13T13:30:13.623Z,82.04
2023-01-13T13:31:17.705Z,81.87
2023-01-13T13:32:21.278Z,80.93
2023-01-13T13:33:57.228Z,81.87
2023-01-13T13:35:00.902Z,82.25
2023-01-13T13:36:04.657Z,82.51
2023-01-13T13:37:40.677Z,81.81
2023-01-13T13:38:44.227Z,81.74
2023-01-13T13:39:48.395Z,81.00
2023-01-13T13:41:24.454Z,80.37
2023-01-13T13:42:28.332Z,80.28
2023-01-13T13:43:32.063Z,80.43
2023-01-13T13:45:07.965Z,80.98
2023-01-13T13:46:11.855Z,80.78
2023-01-13T13:47:15.904Z,80.11
2023-01-13T13:48:52.315Z,80.47
2023-01-13T13:49:55.789Z,81.29
2023-01-13T13:50:59.477Z,81.14
2023-01-13T13:52:35.484Z,79.96
2023-01-13T13:53:39.247Z,80.90
2023-01-13T13:54:42.910Z,79.99
2023-01-13T13:56:18.817Z,80.24
2023-01-13T13:57:22.714Z,79.36
2023-01-13T13:58:26.617Z,80.10
2023-01-13T14:00:18.583Z,79.82
2023-01-13T14:01:22.496Z,79.65
2023-01-13T14:02:27.430Z,79.33
2023-01-13T14:04:03.138Z,79.04
2023-01-13T14:05:07.244Z,79.46
2023-01-13T14:06:11.023Z,79.81
2023-01-13T14:07:46.769Z,79.05
2023-01-13T14:08:52.589Z,79.37
2023-01-13T14:09:56.195Z,79.37
2023-01-13T14:11:32.549Z,79.40
2023-01-13T14:12:36.046Z,79.32
2023-01-13T14:13:39.505Z,79.49
2023-01-13T14:15:15.308Z,78.98
2023-01-13T14:16:19.319Z,79.06
2023-01-13T14:17:22.860Z,79.62
2023-01-13T14:18:58.733Z,79.16
2023-01-13T14:20:02.462Z,79.38
2023-01-13T14:21:06.525Z,78.95
2023-01-13T14:22:43.158Z,78.62
2023-01-13T14:23:46.744Z,79.27
2023-01-13T14:24:50.315Z,79.65
2023-01-13T14:26:26.016Z,79.43
2023-01-13T14:27:29.806Z,79.02
2023-01-13T14:28:33.191Z,79.32
2023-01-13T14:30:09.243Z,80.03
2023-01-13T14:31:12.906Z,80.57
2023-01-13T14:32:16.978Z,80.29
2023-01-13T14:33:52.872Z,79.69
2023-01-13T14:35:25.321Z,79.59
2023-01-13T14:36:33.722Z,79.42
2023-01-13T14:38:09.485Z,78.84
2023-01-13T14:39:13.059Z,78.28
2023-01-13T14:40:18.976Z,79.21
2023-01-13T14:41:54.672Z,78.84
2023-01-13T14:42:58.505Z,78.61
2023-01-13T14:44:01.950Z,79.17
2023-01-13T14:45:37.946Z,79.37
2023-01-13T14:46:41.887Z,79.34
2023-01-13T14:47:45.448Z,78.78
2023-01-13T14:49:21.438Z,78.66
2023-01-13T14:50:26.636Z,78.78
2023-01-13T14:51:31.356Z,78.89
2023-01-13T14:53:07.285Z,78.57
2023-01-13T14:54:10.937Z,78.64
2023-01-13T14:55:14.547Z,78.19
2023-01-13T14:56:50.313Z,78.09
2023-01-13T14:57:53.982Z,78.63
2023-01-13T14:58:57.404Z,78.36
2023-01-13T15:00:18.240Z,78.47
2023-01-13T15:01:22.077Z,78.30
2023-01-13T15:02:26.571Z,78.84
2023-01-13T15:04:05.020Z,78.14
2023-01-13T15:05:08.654Z,78.82
2023-01-13T15:06:12.200Z,78.75
2023-01-13T15:07:48.172Z,77.92
2023-01-13T15:08:51.714Z,77.99
2023-01-13T15:09:55.301Z,78.36
2023-01-13T15:11:31.702Z,78.79
2023-01-13T15:12:36.069Z,79.04
2023-01-13T15:13:43.671Z,79.04
2023-01-13T15:15:26.175Z,79.27
2023-01-13T15:16:30.156Z,79.75
2023-01-13T15:17:33.763Z,79.52
2023-01-13T15:19:09.489Z,79.29
2023-01-13T15:20:13.209Z,79.31
2023-01-13T15:21:16.853Z,79.59
2023-01-13T15:22:53.039Z,79.40
2023-01-13T15:23:56.710Z,79.29
2023-01-13T15:25:00.210Z,79.31
2023-01-13T15:26:36.025Z,80.11
2023-01-13T15:27:39.520Z,80.00
2023-01-13T15:28:43.349Z,79.54
2023-01-13T15:30:19.212Z,79.62
2023-01-13T15:31:22.969Z,79.60
2023-01-13T15:32:26.962Z,80.02
2023-01-13T15:34:02.918Z,80.34
2023-01-13T15:35:06.408Z,79.84
2023-01-13T15:36:11.802Z,79.94
2023-01-13T15:37:47.651Z,79.62
2023-01-13T15:38:51.332Z,79.78
2023-01-13T15:39:55.065Z,79.77
2023-01-13T15:41:31.087Z,80.02
2023-01-13T15:42:34.688Z,80.28
2023-01-13T15:43:38.145Z,80.39
2023-01-13T15:45:13.886Z,80.61
2023-01-13T15:46:17.403Z,80.56
2023-01-13T15:47:21.558Z,80.61
2023-01-13T15:49:00.577Z,80.26
2023-01-13T15:50:04.281Z,80.58
2023-01-13T15:51:08.898Z,80.77
2023-01-13T15:52:44.998Z,80.98
2023-01-13T15:53:48.532Z,81.13
2023-01-13T15:54:52.164Z,80.91
2023-01-13T15:56:27.872Z,81.78
2023-01-13T15:57:31.606Z,80.79